Noblesville, IN (46062)

2:57 AM EST on January 20, 2017 (GMT -0500)
Hooterville | | Change Station

Elev 863 ft 40.10 °N, 86.08 °W | Updated 48 seconds ago

Rain
Rain
43.0 °F
Feels Like 43 °F
N
0.0
Wind Variable Wind from ESE
Gusts 1.0 mph

Today
High -- | Low -- °F
--% Chance of Precip.
Yesterday
High -- | Low -- °F
Precip. -- in
Pressure 29.60 in
Visibility 5.0 miles
Clouds Overcast 400 ft
Windchill 43 °F
Dew Point 43 °F
Humidity 100%
Rainfall 0.43 in
Snow Depth Not available.
8:01 AM 5:49 PM
Last Quarter, 46% visible
METAR KTYQ 200735Z AUTO 12006KT 5SM RA OVC004 06/06 A2960 RMK AO2 P0005 T00600057
Pressure 29.60 in
Visibility 5.0 miles
Clouds Overcast 400 ft
Windchill 43 °F
Dew Point 43 °F
Humidity 100%
Rainfall 0.43 in
Snow Depth Not available.
8:01 AM 5:49 PM
Last Quarter, 46% visible
METAR KTYQ 200735Z AUTO 12006KT 5SM RA OVC004 06/06 A2960 RMK AO2 P0005 T00600057

Get Your Daily Forecast Email!

Thanks for signing up!

Be on the lookout for a verification email in your inbox.

You'll start receiving the daily forecast at 8 AM.

×

10-Day Weather Forecast

Almanac

Astronomy

Jan. 20, 2017 Rise Set
Actual Time
Civil Twilight
Nautical Twilight
Astronomical Twilight
Moon
Length of Visible Light
Length of Day
Tomorrow will be .
, % of the Moon is Illuminated

Today's Extremes

State Highs State Lows

Community

WunderPhotos

Upload Photos

1,962,540 photos uploaded!

WunderBlog® & News

Nearby

Air Quality

  Air Quality AQ Index Pollutant
Not available.

Snow Depth

Station Depth Elevation

Earthquake Activity

City Distance Mag. Time & Date
Minimum magnitude displayed is 2.5.

Coastal Water Temperatures

Place Temperature

Stations

Nearby Weather Stations

Station Location Temp. Windchill Dew Point Humidity Wind Precip. Elev Updated Type
                   

Watches & Warnings

There are currently no watches in effect.